Terminal Aerodrome Forecast
Issued by NWS Cleveland, OH

Home | Current Version | Previous Version | Text Only | Print | Product List | Glossary Off
Versions: 1 2 3 4 5 6 7 8 9 10 11 12 13 14

000
FTUS41 KCLE 201138
TAFTOL
TAF
KTOL 201138Z 2012/2112 00000KT 6SM BR SKC
     FM201400 VRB03KT P6SM SKC
     FM201900 19006KT P6SM FEW050
     FM211000 VRB03KT 4SM BR SCT150=

USA.gov is the U.S. government's official web portal to all federal, state and local government web resources and services.